首页
METAR-TAF:

METAR-TAF

机场 :

Fort Nelson, 不列颠哥伦比亚, 加拿大

纬度: 58-50N, 经度: 122-35W, 海拔: 382米

当前天气观测

该预报发布于34分钟前的08:00 UTC
风速5节,风向北转西北
温度 5°C
湿度 93%
气压 1015 hPa
能見度: 24.1公里
阴天层高于2700英尺
小雨

METAR: CYYE 190800Z 33005KT 15SM -RA OVC027 05/04 A2998 RMK ST8 SLP171

时间: 01:34 (08:34 UTC)

预报

该预报发布于1小时和56分钟前的06:38 UTC
预报有效从19日的 07点(UTC)到 19日的 19点(UTC)
风速6节,风向北转西北
能見度: 10公里
少量云层高于1500英尺
阴天层高于3000英尺
小雨
短暂存在
从 19日的 07点(UTC)到 19日的 19点(UTC)
能見度: 6.4公里
散云层高于800英尺
阴天层高于1500英尺
小雨, 轻雾

TAF: CYYE 190638Z 1907/1919 34006KT P6SM -RA FEW015 OVC030 TEMPO 1907/1919 4SM -RA BR SCT008 OVC015 RMK NXT FCST BY 191300Z

超过4000个机场的气象观测和天气预报(METAR&TAF报告)。

可查询的气象台以黄色和红色小点在地图上表示。

将鼠标移到小点上方,可查看气象台名称。

然后点击查看天气观测和预报。

如需切换地图:点击带黑十字的绿色按钮放大地图;点击带横线的绿色按钮缩小地图;或者点击绿色箭头查看邻近地区的地图。


METAR-TAF: